sensor_id;sensor_type;location;lat;lon;timestamp;temperature;humidity
44855;DHT22;30591;48.228;16.398;2022-07-06T00:02:06;20.40;99.90
44855;DHT22;30591;48.228;16.398;2022-07-06T00:04:33;20.50;99.90
44855;DHT22;30591;48.228;16.398;2022-07-06T00:07:00;20.50;99.90
44855;DHT22;30591;48.228;16.398;2022-07-06T00:09:27;20.50;99.90
44855;DHT22;30591;48.228;16.398;2022-07-06T00:11:53;20.50;99.90
44855;DHT22;30591;48.228;16.398;2022-07-06T00:14:20;20.50;99.90
44855;DHT22;30591;48.228;16.398;2022-07-06T00:16:47;20.50;99.90
44855;DHT22;30591;48.228;16.398;2022-07-06T00:19:14;20.50;99.90
44855;DHT22;30591;48.228;16.398;2022-07-06T00:21:41;20.60;99.90
44855;DHT22;30591;48.228;16.398;2022-07-06T00:24:08;20.50;99.90
44855;DHT22;30591;48.228;16.398;2022-07-06T00:26:35;20.50;99.90
44855;DHT22;30591;48.228;16.398;2022-07-06T00:29:02;20.40;99.90
44855;DHT22;30591;48.228;16.398;2022-07-06T00:31:29;20.30;99.90
44855;DHT22;30591;48.228;16.398;2022-07-06T00:33:56;20.30;99.90
44855;DHT22;30591;48.228;16.398;2022-07-06T00:36:23;20.30;99.90
44855;DHT22;30591;48.228;16.398;2022-07-06T00:38:50;20.20;99.90
44855;DHT22;30591;48.228;16.398;2022-07-06T00:41:17;20.20;99.90
44855;DHT22;30591;48.228;16.398;2022-07-06T00:43:48;20.20;99.90
44855;DHT22;30591;48.228;16.398;2022-07-06T00:46:15;20.30;99.90
44855;DHT22;30591;48.228;16.398;2022-07-06T00:48:42;20.40;99.90
44855;DHT22;30591;48.228;16.398;2022-07-06T00:51:10;20.60;99.90
44855;DHT22;30591;48.228;16.398;2022-07-06T00:53:38;20.70;99.90
44855;DHT22;30591;48.228;16.398;2022-07-06T00:56:05;20.60;99.90
44855;DHT22;30591;48.228;16.398;2022-07-06T00:58:32;20.60;99.90
44855;DHT22;30591;48.228;16.398;2022-07-06T01:00:59;20.70;99.90
44855;DHT22;30591;48.228;16.398;2022-07-06T01:03:26;20.70;99.90
44855;DHT22;30591;48.228;16.398;2022-07-06T01:05:53;20.80;99.90
44855;DHT22;30591;48.228;16.398;2022-07-06T01:08:20;20.80;99.90
44855;DHT22;30591;48.228;16.398;2022-07-06T01:10:48;20.80;99.90
44855;DHT22;30591;48.228;16.398;2022-07-06T01:13:15;20.60;99.90
44855;DHT22;30591;48.228;16.398;2022-07-06T01:15:42;20.70;99.90
44855;DHT22;30591;48.228;16.398;2022-07-06T01:18:10;20.60;99.90
44855;DHT22;30591;48.228;16.398;2022-07-06T01:20:38;20.50;99.90
44855;DHT22;30591;48.228;16.398;2022-07-06T01:23:05;20.50;99.90
44855;DHT22;30591;48.228;16.398;2022-07-06T01:25:32;20.50;99.90
44855;DHT22;30591;48.228;16.398;2022-07-06T01:27:59;20.50;99.90
44855;DHT22;30591;48.228;16.398;2022-07-06T01:30:26;20.50;99.90
44855;DHT22;30591;48.228;16.398;2022-07-06T01:32:53;20.50;99.90
44855;DHT22;30591;48.228;16.398;2022-07-06T01:35:20;20.50;99.90
44855;DHT22;30591;48.228;16.398;2022-07-06T01:37:47;20.50;99.90
44855;DHT22;30591;48.228;16.398;2022-07-06T01:40:14;20.50;99.90
44855;DHT22;30591;48.228;16.398;2022-07-06T01:42:40;20.50;99.90
44855;DHT22;30591;48.228;16.398;2022-07-06T01:45:08;20.50;99.90
44855;DHT22;30591;48.228;16.398;2022-07-06T01:47:36;20.40;99.90
44855;DHT22;30591;48.228;16.398;2022-07-06T01:50:08;20.40;99.90
44855;DHT22;30591;48.228;16.398;2022-07-06T01:52:39;20.50;99.90
44855;DHT22;30591;48.228;16.398;2022-07-06T01:55:07;20.50;99.90
44855;DHT22;30591;48.228;16.398;2022-07-06T01:57:35;20.50;99.90
44855;DHT22;30591;48.228;16.398;2022-07-06T02:00:05;20.60;99.90
44855;DHT22;30591;48.228;16.398;2022-07-06T02:02:38;20.60;99.90
44855;DHT22;30591;48.228;16.398;2022-07-06T02:05:06;20.50;99.90
44855;DHT22;30591;48.228;16.398;2022-07-06T02:07:33;20.50;99.90
44855;DHT22;30591;48.228;16.398;2022-07-06T02:10:01;20.50;99.90
44855;DHT22;30591;48.228;16.398;2022-07-06T02:12:28;20.50;99.90
44855;DHT22;30591;48.228;16.398;2022-07-06T02:14:55;20.40;99.90
44855;DHT22;30591;48.228;16.398;2022-07-06T02:17:22;20.60;99.90
44855;DHT22;30591;48.228;16.398;2022-07-06T02:19:49;20.80;99.90
44855;DHT22;30591;48.228;16.398;2022-07-06T02:22:16;20.80;99.90
44855;DHT22;30591;48.228;16.398;2022-07-06T02:24:43;20.80;99.90
44855;DHT22;30591;48.228;16.398;2022-07-06T02:27:10;20.90;99.90
44855;DHT22;30591;48.228;16.398;2022-07-06T02:29:37;21.00;99.90
44855;DHT22;30591;48.228;16.398;2022-07-06T02:32:07;21.10;99.90
44855;DHT22;30591;48.228;16.398;2022-07-06T02:34:34;21.00;99.90
44855;DHT22;30591;48.228;16.398;2022-07-06T02:37:01;21.00;99.90
44855;DHT22;30591;48.228;16.398;2022-07-06T02:39:29;21.10;99.90
44855;DHT22;30591;48.228;16.398;2022-07-06T02:41:56;21.00;99.90
44855;DHT22;30591;48.228;16.398;2022-07-06T02:44:23;20.90;99.90
44855;DHT22;30591;48.228;16.398;2022-07-06T02:46:51;21.00;99.90
44855;DHT22;30591;48.228;16.398;2022-07-06T02:49:18;21.00;99.90
44855;DHT22;30591;48.228;16.398;2022-07-06T02:51:45;20.90;99.90
44855;DHT22;30591;48.228;16.398;2022-07-06T02:54:12;20.90;99.90
44855;DHT22;30591;48.228;16.398;2022-07-06T02:56:39;20.80;99.90
44855;DHT22;30591;48.228;16.398;2022-07-06T02:59:08;20.80;99.90
44855;DHT22;30591;48.228;16.398;2022-07-06T03:01:41;20.80;99.90
44855;DHT22;30591;48.228;16.398;2022-07-06T03:04:08;20.90;99.90
44855;DHT22;30591;48.228;16.398;2022-07-06T03:06:35;20.90;99.90
44855;DHT22;30591;48.228;16.398;2022-07-06T03:09:02;20.90;99.90
44855;DHT22;30591;48.228;16.398;2022-07-06T03:11:30;21.00;99.90
44855;DHT22;30591;48.228;16.398;2022-07-06T03:13:57;20.90;99.90
44855;DHT22;30591;48.228;16.398;2022-07-06T03:16:24;20.70;99.90
44855;DHT22;30591;48.228;16.398;2022-07-06T03:18:50;20.80;99.90
44855;DHT22;30591;48.228;16.398;2022-07-06T03:21:17;20.70;99.90
44855;DHT22;30591;48.228;16.398;2022-07-06T03:23:44;20.80;99.90
44855;DHT22;30591;48.228;16.398;2022-07-06T03:26:11;20.70;99.90
44855;DHT22;30591;48.228;16.398;2022-07-06T03:28:38;20.80;99.90
44855;DHT22;30591;48.228;16.398;2022-07-06T03:31:06;20.70;99.90
44855;DHT22;30591;48.228;16.398;2022-07-06T03:33:33;20.80;99.90
44855;DHT22;30591;48.228;16.398;2022-07-06T03:36:01;20.40;99.90
44855;DHT22;30591;48.228;16.398;2022-07-06T03:38:28;20.40;99.90
44855;DHT22;30591;48.228;16.398;2022-07-06T03:40:55;20.50;99.90
44855;DHT22;30591;48.228;16.398;2022-07-06T03:43:22;20.40;99.90
44855;DHT22;30591;48.228;16.398;2022-07-06T03:45:49;20.40;99.90
44855;DHT22;30591;48.228;16.398;2022-07-06T03:48:17;20.40;99.90
44855;DHT22;30591;48.228;16.398;2022-07-06T03:50:45;20.60;99.90
44855;DHT22;30591;48.228;16.398;2022-07-06T03:53:11;20.70;99.90
44855;DHT22;30591;48.228;16.398;2022-07-06T03:55:38;20.60;99.90
44855;DHT22;30591;48.228;16.398;2022-07-06T03:58:08;20.60;99.90
44855;DHT22;30591;48.228;16.398;2022-07-06T04:00:38;20.70;99.90
44855;DHT22;30591;48.228;16.398;2022-07-06T04:03:10;20.70;99.90
44855;DHT22;30591;48.228;16.398;2022-07-06T04:05:44;20.70;99.90
44855;DHT22;30591;48.228;16.398;2022-07-06T04:08:11;20.70;99.90
44855;DHT22;30591;48.228;16.398;2022-07-06T04:10:44;20.80;99.90
44855;DHT22;30591;48.228;16.398;2022-07-06T04:13:11;20.80;99.90
44855;DHT22;30591;48.228;16.398;2022-07-06T04:15:38;20.90;99.90
44855;DHT22;30591;48.228;16.398;2022-07-06T04:18:06;20.90;99.90
44855;DHT22;30591;48.228;16.398;2022-07-06T04:20:40;20.90;99.90
44855;DHT22;30591;48.228;16.398;2022-07-06T04:23:07;20.80;99.90
44855;DHT22;30591;48.228;16.398;2022-07-06T04:25:34;20.90;99.90
44855;DHT22;30591;48.228;16.398;2022-07-06T04:28:02;20.80;99.90
44855;DHT22;30591;48.228;16.398;2022-07-06T04:30:31;21.00;99.90
44855;DHT22;30591;48.228;16.398;2022-07-06T04:32:58;21.00;99.90
44855;DHT22;30591;48.228;16.398;2022-07-06T04:35:27;20.80;99.90
44855;DHT22;30591;48.228;16.398;2022-07-06T04:37:55;20.70;99.90
44855;DHT22;30591;48.228;16.398;2022-07-06T04:40:23;20.80;99.90
44855;DHT22;30591;48.228;16.398;2022-07-06T04:42:54;20.80;99.90
44855;DHT22;30591;48.228;16.398;2022-07-06T04:45:23;20.90;99.90
44855;DHT22;30591;48.228;16.398;2022-07-06T04:47:50;20.70;99.90
44855;DHT22;30591;48.228;16.398;2022-07-06T04:50:18;20.70;99.90
44855;DHT22;30591;48.228;16.398;2022-07-06T04:52:46;20.90;99.90
44855;DHT22;30591;48.228;16.398;2022-07-06T04:55:13;20.90;99.90
44855;DHT22;30591;48.228;16.398;2022-07-06T04:57:41;21.00;99.90
44855;DHT22;30591;48.228;16.398;2022-07-06T05:00:11;21.10;99.90
44855;DHT22;30591;48.228;16.398;2022-07-06T05:02:38;21.10;99.90
44855;DHT22;30591;48.228;16.398;2022-07-06T05:05:05;21.20;99.90
44855;DHT22;30591;48.228;16.398;2022-07-06T05:07:32;21.40;99.90
44855;DHT22;30591;48.228;16.398;2022-07-06T05:10:01;21.30;99.90
44855;DHT22;30591;48.228;16.398;2022-07-06T05:12:31;21.20;99.90
44855;DHT22;30591;48.228;16.398;2022-07-06T05:14:59;21.10;99.90
44855;DHT22;30591;48.228;16.398;2022-07-06T05:17:27;21.20;99.90
44855;DHT22;30591;48.228;16.398;2022-07-06T05:19:57;21.30;99.90
44855;DHT22;30591;48.228;16.398;2022-07-06T05:22:25;21.40;99.90
44855;DHT22;30591;48.228;16.398;2022-07-06T05:24:52;21.40;99.90
44855;DHT22;30591;48.228;16.398;2022-07-06T05:27:20;21.60;99.90
44855;DHT22;30591;48.228;16.398;2022-07-06T05:29:48;21.60;99.90
44855;DHT22;30591;48.228;16.398;2022-07-06T05:32:15;21.60;99.90
44855;DHT22;30591;48.228;16.398;2022-07-06T05:34:43;21.60;99.90
44855;DHT22;30591;48.228;16.398;2022-07-06T05:37:10;21.60;99.90
44855;DHT22;30591;48.228;16.398;2022-07-06T05:39:38;21.70;99.90
44855;DHT22;30591;48.228;16.398;2022-07-06T05:42:08;21.80;99.90
44855;DHT22;30591;48.228;16.398;2022-07-06T05:44:36;22.00;99.90
44855;DHT22;30591;48.228;16.398;2022-07-06T05:47:04;22.00;99.90
44855;DHT22;30591;48.228;16.398;2022-07-06T05:49:49;22.10;99.90
44855;DHT22;30591;48.228;16.398;2022-07-06T05:52:36;22.20;99.90
44855;DHT22;30591;48.228;16.398;2022-07-06T05:55:04;22.30;99.90
44855;DHT22;30591;48.228;16.398;2022-07-06T05:57:31;22.40;99.90
44855;DHT22;30591;48.228;16.398;2022-07-06T05:59:58;22.40;99.90
44855;DHT22;30591;48.228;16.398;2022-07-06T06:02:26;22.50;99.90
44855;DHT22;30591;48.228;16.398;2022-07-06T06:04:54;22.50;99.90
44855;DHT22;30591;48.228;16.398;2022-07-06T06:07:20;22.50;99.90
44855;DHT22;30591;48.228;16.398;2022-07-06T06:09:47;22.70;99.90
44855;DHT22;30591;48.228;16.398;2022-07-06T06:12:14;22.80;99.90
44855;DHT22;30591;48.228;16.398;2022-07-06T06:14:41;22.70;99.90
44855;DHT22;30591;48.228;16.398;2022-07-06T06:17:08;22.70;99.90
44855;DHT22;30591;48.228;16.398;2022-07-06T06:19:36;22.90;99.90
44855;DHT22;30591;48.228;16.398;2022-07-06T06:22:03;23.00;99.90
44855;DHT22;30591;48.228;16.398;2022-07-06T06:24:30;23.00;99.90
44855;DHT22;30591;48.228;16.398;2022-07-06T06:26:57;22.80;99.90
44855;DHT22;30591;48.228;16.398;2022-07-06T06:29:25;22.70;99.90
44855;DHT22;30591;48.228;16.398;2022-07-06T06:31:53;22.80;99.90
44855;DHT22;30591;48.228;16.398;2022-07-06T06:34:20;22.70;99.90
44855;DHT22;30591;48.228;16.398;2022-07-06T06:36:47;22.70;99.90
44855;DHT22;30591;48.228;16.398;2022-07-06T06:39:14;22.30;99.90
44855;DHT22;30591;48.228;16.398;2022-07-06T06:41:41;22.00;99.90
44855;DHT22;30591;48.228;16.398;2022-07-06T06:44:08;22.00;99.90
44855;DHT22;30591;48.228;16.398;2022-07-06T06:46:41;22.10;99.90
44855;DHT22;30591;48.228;16.398;2022-07-06T06:49:08;22.20;99.90
44855;DHT22;30591;48.228;16.398;2022-07-06T06:51:35;22.10;99.90
44855;DHT22;30591;48.228;16.398;2022-07-06T06:54:02;22.20;99.90
44855;DHT22;30591;48.228;16.398;2022-07-06T06:56:29;22.20;99.90
44855;DHT22;30591;48.228;16.398;2022-07-06T06:58:56;22.30;99.90
44855;DHT22;30591;48.228;16.398;2022-07-06T07:01:43;22.00;99.90
44855;DHT22;30591;48.228;16.398;2022-07-06T07:04:10;21.90;99.90
44855;DHT22;30591;48.228;16.398;2022-07-06T07:06:37;21.90;99.90
44855;DHT22;30591;48.228;16.398;2022-07-06T07:09:04;21.90;99.90
44855;DHT22;30591;48.228;16.398;2022-07-06T07:11:31;22.00;99.90
44855;DHT22;30591;48.228;16.398;2022-07-06T07:13:58;22.10;99.90
44855;DHT22;30591;48.228;16.398;2022-07-06T07:16:27;22.40;99.90
44855;DHT22;30591;48.228;16.398;2022-07-06T07:18:54;22.30;99.90
44855;DHT22;30591;48.228;16.398;2022-07-06T07:21:21;22.10;99.90
44855;DHT22;30591;48.228;16.398;2022-07-06T07:23:48;22.20;99.90
44855;DHT22;30591;48.228;16.398;2022-07-06T07:26:17;22.30;99.90
44855;DHT22;30591;48.228;16.398;2022-07-06T07:28:44;22.40;99.90
44855;DHT22;30591;48.228;16.398;2022-07-06T07:31:10;22.50;99.90
44855;DHT22;30591;48.228;16.398;2022-07-06T07:33:37;22.50;99.90
44855;DHT22;30591;48.228;16.398;2022-07-06T07:36:04;22.70;99.90
44855;DHT22;30591;48.228;16.398;2022-07-06T07:38:31;22.90;99.90
44855;DHT22;30591;48.228;16.398;2022-07-06T07:40:58;23.00;99.90
44855;DHT22;30591;48.228;16.398;2022-07-06T07:43:25;23.10;99.90
44855;DHT22;30591;48.228;16.398;2022-07-06T07:45:52;23.30;99.90
44855;DHT22;30591;48.228;16.398;2022-07-06T07:48:19;23.50;99.90
44855;DHT22;30591;48.228;16.398;2022-07-06T07:50:47;23.40;99.90
44855;DHT22;30591;48.228;16.398;2022-07-06T07:53:13;23.10;99.90
44855;DHT22;30591;48.228;16.398;2022-07-06T07:55:40;23.30;99.90
44855;DHT22;30591;48.228;16.398;2022-07-06T07:58:08;23.30;99.90
44855;DHT22;30591;48.228;16.398;2022-07-06T08:00:36;23.10;99.90
44855;DHT22;30591;48.228;16.398;2022-07-06T08:03:03;23.30;99.90
44855;DHT22;30591;48.228;16.398;2022-07-06T08:05:30;23.30;99.90
44855;DHT22;30591;48.228;16.398;2022-07-06T08:07:57;23.30;99.90
44855;DHT22;30591;48.228;16.398;2022-07-06T08:10:24;23.30;99.90
44855;DHT22;30591;48.228;16.398;2022-07-06T08:12:51;23.30;99.90
44855;DHT22;30591;48.228;16.398;2022-07-06T08:15:18;23.30;99.90
44855;DHT22;30591;48.228;16.398;2022-07-06T08:17:45;23.40;99.90
44855;DHT22;30591;48.228;16.398;2022-07-06T08:20:12;23.80;99.90
44855;DHT22;30591;48.228;16.398;2022-07-06T08:22:39;23.90;99.90
44855;DHT22;30591;48.228;16.398;2022-07-06T08:25:06;23.90;99.90
44855;DHT22;30591;48.228;16.398;2022-07-06T08:27:34;23.90;99.90
44855;DHT22;30591;48.228;16.398;2022-07-06T08:30:05;23.80;99.90
44855;DHT22;30591;48.228;16.398;2022-07-06T08:32:32;23.80;99.90
44855;DHT22;30591;48.228;16.398;2022-07-06T08:35:19;23.80;99.90
44855;DHT22;30591;48.228;16.398;2022-07-06T08:37:46;23.70;99.90
44855;DHT22;30591;48.228;16.398;2022-07-06T08:40:13;23.70;99.90
44855;DHT22;30591;48.228;16.398;2022-07-06T08:42:41;23.90;99.90
44855;DHT22;30591;48.228;16.398;2022-07-06T08:45:09;24.00;99.90
44855;DHT22;30591;48.228;16.398;2022-07-06T08:47:36;24.10;99.90
44855;DHT22;30591;48.228;16.398;2022-07-06T08:50:04;24.00;99.90
44855;DHT22;30591;48.228;16.398;2022-07-06T08:52:32;24.10;99.90
44855;DHT22;30591;48.228;16.398;2022-07-06T08:54:59;24.00;99.90
44855;DHT22;30591;48.228;16.398;2022-07-06T08:57:28;24.20;99.90
44855;DHT22;30591;48.228;16.398;2022-07-06T08:59:55;24.30;99.90
44855;DHT22;30591;48.228;16.398;2022-07-06T09:02:25;24.30;99.90
44855;DHT22;30591;48.228;16.398;2022-07-06T09:04:55;24.00;99.90
44855;DHT22;30591;48.228;16.398;2022-07-06T09:07:27;24.00;99.90
44855;DHT22;30591;48.228;16.398;2022-07-06T09:10:17;24.10;99.90
44855;DHT22;30591;48.228;16.398;2022-07-06T09:12:44;24.10;99.90
44855;DHT22;30591;48.228;16.398;2022-07-06T09:15:11;23.90;99.90
44855;DHT22;30591;48.228;16.398;2022-07-06T09:17:39;23.80;99.90
44855;DHT22;30591;48.228;16.398;2022-07-06T09:20:08;23.80;99.90
44855;DHT22;30591;48.228;16.398;2022-07-06T09:22:36;23.90;99.90
44855;DHT22;30591;48.228;16.398;2022-07-06T09:25:12;24.10;99.90
44855;DHT22;30591;48.228;16.398;2022-07-06T09:27:43;23.80;99.90
44855;DHT22;30591;48.228;16.398;2022-07-06T09:30:15;23.70;99.90
44855;DHT22;30591;48.228;16.398;2022-07-06T09:32:47;24.00;99.90
44855;DHT22;30591;48.228;16.398;2022-07-06T09:35:21;24.10;99.90
44855;DHT22;30591;48.228;16.398;2022-07-06T09:38:09;24.20;99.90
44855;DHT22;30591;48.228;16.398;2022-07-06T09:40:38;24.50;99.90
44855;DHT22;30591;48.228;16.398;2022-07-06T09:43:19;24.40;99.90
44855;DHT22;30591;48.228;16.398;2022-07-06T09:45:50;24.20;99.90
44855;DHT22;30591;48.228;16.398;2022-07-06T09:48:18;24.00;99.90
44855;DHT22;30591;48.228;16.398;2022-07-06T09:50:51;24.00;99.90
44855;DHT22;30591;48.228;16.398;2022-07-06T09:53:22;24.00;99.90
44855;DHT22;30591;48.228;16.398;2022-07-06T09:55:50;23.90;99.90
44855;DHT22;30591;48.228;16.398;2022-07-06T09:58:18;23.70;99.90
44855;DHT22;30591;48.228;16.398;2022-07-06T10:01:05;23.70;99.90
44855;DHT22;30591;48.228;16.398;2022-07-06T10:03:33;23.90;99.90
44855;DHT22;30591;48.228;16.398;2022-07-06T10:06:00;23.90;99.90
44855;DHT22;30591;48.228;16.398;2022-07-06T10:08:27;24.20;99.90
44855;DHT22;30591;48.228;16.398;2022-07-06T10:10:55;24.20;99.90
44855;DHT22;30591;48.228;16.398;2022-07-06T10:13:24;24.00;99.90
44855;DHT22;30591;48.228;16.398;2022-07-06T10:15:53;24.40;99.90
44855;DHT22;30591;48.228;16.398;2022-07-06T10:18:21;24.60;99.90
44855;DHT22;30591;48.228;16.398;2022-07-06T10:20:48;24.50;99.90
44855;DHT22;30591;48.228;16.398;2022-07-06T10:23:15;24.40;99.90
44855;DHT22;30591;48.228;16.398;2022-07-06T10:25:44;24.30;99.90
44855;DHT22;30591;48.228;16.398;2022-07-06T10:28:12;24.60;99.90
44855;DHT22;30591;48.228;16.398;2022-07-06T10:30:42;24.90;99.90
44855;DHT22;30591;48.228;16.398;2022-07-06T10:33:10;24.70;99.90
44855;DHT22;30591;48.228;16.398;2022-07-06T10:35:40;24.60;99.90
44855;DHT22;30591;48.228;16.398;2022-07-06T10:38:09;24.70;99.90
44855;DHT22;30591;48.228;16.398;2022-07-06T10:40:38;25.00;99.90
44855;DHT22;30591;48.228;16.398;2022-07-06T10:43:37;25.30;99.90
44855;DHT22;30591;48.228;16.398;2022-07-06T10:46:12;25.30;99.90
44855;DHT22;30591;48.228;16.398;2022-07-06T10:48:44;24.60;99.90
44855;DHT22;30591;48.228;16.398;2022-07-06T10:51:25;24.50;99.90
44855;DHT22;30591;48.228;16.398;2022-07-06T10:54:00;24.40;99.90
44855;DHT22;30591;48.228;16.398;2022-07-06T10:56:33;24.10;99.90
44855;DHT22;30591;48.228;16.398;2022-07-06T10:59:24;24.00;99.90
44855;DHT22;30591;48.228;16.398;2022-07-06T11:02:16;24.00;99.90
44855;DHT22;30591;48.228;16.398;2022-07-06T11:04:48;23.80;99.90
44855;DHT22;30591;48.228;16.398;2022-07-06T11:07:19;23.70;99.90
44855;DHT22;30591;48.228;16.398;2022-07-06T11:09:57;23.60;99.90
44855;DHT22;30591;48.228;16.398;2022-07-06T11:12:25;23.10;99.90
44855;DHT22;30591;48.228;16.398;2022-07-06T11:14:52;22.90;99.90
44855;DHT22;30591;48.228;16.398;2022-07-06T11:17:20;23.20;99.90
44855;DHT22;30591;48.228;16.398;2022-07-06T11:19:55;23.70;99.90
44855;DHT22;30591;48.228;16.398;2022-07-06T11:22:22;23.60;99.90
44855;DHT22;30591;48.228;16.398;2022-07-06T11:24:51;24.50;99.90
44855;DHT22;30591;48.228;16.398;2022-07-06T11:27:23;24.80;99.90
44855;DHT22;30591;48.228;16.398;2022-07-06T11:29:50;24.20;99.90
44855;DHT22;30591;48.228;16.398;2022-07-06T11:32:24;23.20;99.90
44855;DHT22;30591;48.228;16.398;2022-07-06T11:34:51;23.90;99.90
44855;DHT22;30591;48.228;16.398;2022-07-06T11:37:19;24.50;99.90
44855;DHT22;30591;48.228;16.398;2022-07-06T11:39:47;24.20;99.90
44855;DHT22;30591;48.228;16.398;2022-07-06T11:42:16;24.70;99.90
44855;DHT22;30591;48.228;16.398;2022-07-06T11:44:45;24.90;99.90
44855;DHT22;30591;48.228;16.398;2022-07-06T11:47:13;24.70;99.90
44855;DHT22;30591;48.228;16.398;2022-07-06T11:49:50;24.40;99.90
44855;DHT22;30591;48.228;16.398;2022-07-06T11:52:17;25.00;99.90
44855;DHT22;30591;48.228;16.398;2022-07-06T11:54:44;24.70;99.90
44855;DHT22;30591;48.228;16.398;2022-07-06T11:57:11;24.70;99.90
44855;DHT22;30591;48.228;16.398;2022-07-06T11:59:40;24.60;99.90
44855;DHT22;30591;48.228;16.398;2022-07-06T12:02:09;24.10;99.90
44855;DHT22;30591;48.228;16.398;2022-07-06T12:04:41;24.00;99.90
44855;DHT22;30591;48.228;16.398;2022-07-06T12:07:14;24.40;99.90
44855;DHT22;30591;48.228;16.398;2022-07-06T12:09:43;25.20;99.90
44855;DHT22;30591;48.228;16.398;2022-07-06T12:12:11;25.10;99.90
44855;DHT22;30591;48.228;16.398;2022-07-06T12:14:40;25.40;99.90
44855;DHT22;30591;48.228;16.398;2022-07-06T12:17:14;25.90;99.90
44855;DHT22;30591;48.228;16.398;2022-07-06T12:19:43;25.90;99.90
44855;DHT22;30591;48.228;16.398;2022-07-06T12:22:10;25.90;99.90
44855;DHT22;30591;48.228;16.398;2022-07-06T12:24:42;26.10;99.90
44855;DHT22;30591;48.228;16.398;2022-07-06T12:27:19;26.00;99.90
44855;DHT22;30591;48.228;16.398;2022-07-06T12:29:48;26.30;99.90
44855;DHT22;30591;48.228;16.398;2022-07-06T12:32:22;26.20;99.90
44855;DHT22;30591;48.228;16.398;2022-07-06T12:35:04;25.70;99.90
44855;DHT22;30591;48.228;16.398;2022-07-06T12:37:31;26.00;99.90
44855;DHT22;30591;48.228;16.398;2022-07-06T12:39:58;26.10;99.90
44855;DHT22;30591;48.228;16.398;2022-07-06T12:42:25;26.10;99.90
44855;DHT22;30591;48.228;16.398;2022-07-06T12:44:52;26.00;99.90
44855;DHT22;30591;48.228;16.398;2022-07-06T12:47:24;25.80;99.90
44855;DHT22;30591;48.228;16.398;2022-07-06T12:50:08;25.50;99.90
44855;DHT22;30591;48.228;16.398;2022-07-06T12:52:35;25.40;99.90
44855;DHT22;30591;48.228;16.398;2022-07-06T12:55:04;25.20;99.90
44855;DHT22;30591;48.228;16.398;2022-07-06T12:57:45;25.00;99.90
44855;DHT22;30591;48.228;16.398;2022-07-06T13:00:13;24.90;99.90
44855;DHT22;30591;48.228;16.398;2022-07-06T13:02:40;24.80;99.90
44855;DHT22;30591;48.228;16.398;2022-07-06T13:05:27;24.80;99.90
44855;DHT22;30591;48.228;16.398;2022-07-06T13:07:56;24.90;99.90
44855;DHT22;30591;48.228;16.398;2022-07-06T13:10:24;25.40;99.90
44855;DHT22;30591;48.228;16.398;2022-07-06T13:12:51;25.80;99.90
44855;DHT22;30591;48.228;16.398;2022-07-06T13:15:18;26.00;99.90
44855;DHT22;30591;48.228;16.398;2022-07-06T13:17:45;25.60;99.90
44855;DHT22;30591;48.228;16.398;2022-07-06T13:20:13;25.30;99.90
44855;DHT22;30591;48.228;16.398;2022-07-06T13:22:41;25.20;99.90
44855;DHT22;30591;48.228;16.398;2022-07-06T13:25:08;25.20;99.90
44855;DHT22;30591;48.228;16.398;2022-07-06T13:27:35;25.40;99.90
44855;DHT22;30591;48.228;16.398;2022-07-06T13:30:02;25.60;99.90
44855;DHT22;30591;48.228;16.398;2022-07-06T13:32:29;25.60;99.90
44855;DHT22;30591;48.228;16.398;2022-07-06T13:34:56;25.40;99.90
44855;DHT22;30591;48.228;16.398;2022-07-06T13:37:23;25.30;99.90
44855;DHT22;30591;48.228;16.398;2022-07-06T13:39:50;25.40;99.90
44855;DHT22;30591;48.228;16.398;2022-07-06T13:42:17;25.20;99.90
44855;DHT22;30591;48.228;16.398;2022-07-06T13:44:44;25.30;99.90
44855;DHT22;30591;48.228;16.398;2022-07-06T13:47:11;25.50;99.90
44855;DHT22;30591;48.228;16.398;2022-07-06T13:49:38;25.30;99.90
44855;DHT22;30591;48.228;16.398;2022-07-06T13:52:05;25.30;99.90
44855;DHT22;30591;48.228;16.398;2022-07-06T13:54:32;25.20;99.90
44855;DHT22;30591;48.228;16.398;2022-07-06T13:57:03;25.10;99.90
44855;DHT22;30591;48.228;16.398;2022-07-06T13:59:31;25.50;99.90
44855;DHT22;30591;48.228;16.398;2022-07-06T14:01:58;25.60;99.90
44855;DHT22;30591;48.228;16.398;2022-07-06T14:04:25;25.50;99.90
44855;DHT22;30591;48.228;16.398;2022-07-06T14:06:52;25.20;99.90
44855;DHT22;30591;48.228;16.398;2022-07-06T14:09:19;25.40;99.90
44855;DHT22;30591;48.228;16.398;2022-07-06T14:11:46;25.80;99.90
44855;DHT22;30591;48.228;16.398;2022-07-06T14:14:13;25.90;99.90
44855;DHT22;30591;48.228;16.398;2022-07-06T14:16:40;25.80;99.90
44855;DHT22;30591;48.228;16.398;2022-07-06T14:19:08;25.90;99.90
44855;DHT22;30591;48.228;16.398;2022-07-06T14:21:35;26.10;99.90
44855;DHT22;30591;48.228;16.398;2022-07-06T14:24:02;26.20;99.90
44855;DHT22;30591;48.228;16.398;2022-07-06T14:26:29;25.90;99.90
44855;DHT22;30591;48.228;16.398;2022-07-06T14:28:56;26.00;99.90
44855;DHT22;30591;48.228;16.398;2022-07-06T14:31:23;25.50;99.90
44855;DHT22;30591;48.228;16.398;2022-07-06T14:33:50;25.20;99.90
44855;DHT22;30591;48.228;16.398;2022-07-06T14:36:17;25.00;99.90
44855;DHT22;30591;48.228;16.398;2022-07-06T14:38:45;24.90;99.90
44855;DHT22;30591;48.228;16.398;2022-07-06T14:41:12;24.80;99.90
44855;DHT22;30591;48.228;16.398;2022-07-06T14:43:39;24.80;99.90
44855;DHT22;30591;48.228;16.398;2022-07-06T14:46:06;24.90;99.90
44855;DHT22;30591;48.228;16.398;2022-07-06T14:48:33;24.50;99.90
44855;DHT22;30591;48.228;16.398;2022-07-06T14:51:00;24.30;99.90
44855;DHT22;30591;48.228;16.398;2022-07-06T14:53:27;23.70;99.90
44855;DHT22;30591;48.228;16.398;2022-07-06T14:55:55;23.70;99.90
44855;DHT22;30591;48.228;16.398;2022-07-06T14:58:22;23.40;99.90
44855;DHT22;30591;48.228;16.398;2022-07-06T15:00:50;23.60;99.90
44855;DHT22;30591;48.228;16.398;2022-07-06T15:03:25;23.90;99.90
44855;DHT22;30591;48.228;16.398;2022-07-06T15:05:53;24.60;99.90
44855;DHT22;30591;48.228;16.398;2022-07-06T15:08:20;24.00;99.90
44855;DHT22;30591;48.228;16.398;2022-07-06T15:10:47;23.60;99.90
44855;DHT22;30591;48.228;16.398;2022-07-06T15:13:15;23.50;99.90
44855;DHT22;30591;48.228;16.398;2022-07-06T15:15:42;23.50;99.90
44855;DHT22;30591;48.228;16.398;2022-07-06T15:18:23;24.00;99.90
44855;DHT22;30591;48.228;16.398;2022-07-06T15:20:50;24.70;99.90
44855;DHT22;30591;48.228;16.398;2022-07-06T15:23:17;25.30;99.90
44855;DHT22;30591;48.228;16.398;2022-07-06T15:25:44;25.40;99.90